sensor_id;sensor_type;location;lat;lon;timestamp;temperature;humidity
12166;DHT22;6146;48.128;11.476;2022-12-31T00:01:05;12.90;99.90
12166;DHT22;6146;48.128;11.476;2022-12-31T00:03:32;13.00;99.90
12166;DHT22;6146;48.128;11.476;2022-12-31T00:05:58;13.00;99.90
12166;DHT22;6146;48.128;11.476;2022-12-31T00:08:24;13.10;99.90
12166;DHT22;6146;48.128;11.476;2022-12-31T00:10:49;13.10;99.90
12166;DHT22;6146;48.128;11.476;2022-12-31T00:13:15;13.10;99.90
12166;DHT22;6146;48.128;11.476;2022-12-31T00:15:42;13.10;99.90
12166;DHT22;6146;48.128;11.476;2022-12-31T00:18:08;13.10;99.90
12166;DHT22;6146;48.128;11.476;2022-12-31T00:20:38;13.20;99.90
12166;DHT22;6146;48.128;11.476;2022-12-31T00:23:04;13.30;99.90
12166;DHT22;6146;48.128;11.476;2022-12-31T00:25:29;13.30;99.90
12166;DHT22;6146;48.128;11.476;2022-12-31T00:27:55;13.40;99.90
12166;DHT22;6146;48.128;11.476;2022-12-31T00:30:20;13.40;99.90
12166;DHT22;6146;48.128;11.476;2022-12-31T00:32:46;13.20;99.90
12166;DHT22;6146;48.128;11.476;2022-12-31T00:35:11;13.20;99.90
12166;DHT22;6146;48.128;11.476;2022-12-31T00:37:37;13.20;99.90
12166;DHT22;6146;48.128;11.476;2022-12-31T00:40:03;13.10;99.90
12166;DHT22;6146;48.128;11.476;2022-12-31T00:42:29;13.10;99.90
12166;DHT22;6146;48.128;11.476;2022-12-31T00:44:55;13.20;99.90
12166;DHT22;6146;48.128;11.476;2022-12-31T00:47:22;13.20;99.90
12166;DHT22;6146;48.128;11.476;2022-12-31T00:49:49;13.20;99.90
12166;DHT22;6146;48.128;11.476;2022-12-31T00:52:14;13.30;99.90
12166;DHT22;6146;48.128;11.476;2022-12-31T00:54:42;13.30;99.90
12166;DHT22;6146;48.128;11.476;2022-12-31T00:57:08;13.30;99.90
12166;DHT22;6146;48.128;11.476;2022-12-31T00:59:33;13.40;99.90
12166;DHT22;6146;48.128;11.476;2022-12-31T01:01:59;13.40;99.90
12166;DHT22;6146;48.128;11.476;2022-12-31T01:04:25;13.40;99.90
12166;DHT22;6146;48.128;11.476;2022-12-31T01:06:50;13.50;99.90
12166;DHT22;6146;48.128;11.476;2022-12-31T01:09:16;13.50;99.90
12166;DHT22;6146;48.128;11.476;2022-12-31T01:11:42;13.50;99.90
12166;DHT22;6146;48.128;11.476;2022-12-31T01:14:11;13.60;99.90
12166;DHT22;6146;48.128;11.476;2022-12-31T01:16:44;13.50;99.90
12166;DHT22;6146;48.128;11.476;2022-12-31T01:19:12;13.60;99.90
12166;DHT22;6146;48.128;11.476;2022-12-31T01:21:39;13.50;99.90
12166;DHT22;6146;48.128;11.476;2022-12-31T01:24:06;14.70;99.90
12166;DHT22;6146;48.128;11.476;2022-12-31T01:26:31;13.80;99.90
12166;DHT22;6146;48.128;11.476;2022-12-31T01:28:57;13.80;99.90
12166;DHT22;6146;48.128;11.476;2022-12-31T01:31:23;13.80;99.90
12166;DHT22;6146;48.128;11.476;2022-12-31T01:33:49;13.80;99.90
12166;DHT22;6146;48.128;11.476;2022-12-31T01:36:18;13.80;99.90
12166;DHT22;6146;48.128;11.476;2022-12-31T01:38:43;13.80;99.90
12166;DHT22;6146;48.128;11.476;2022-12-31T01:41:14;13.80;99.90
12166;DHT22;6146;48.128;11.476;2022-12-31T01:43:47;13.80;99.90
12166;DHT22;6146;48.128;11.476;2022-12-31T01:46:23;13.80;99.90
12166;DHT22;6146;48.128;11.476;2022-12-31T01:48:53;13.80;99.90
12166;DHT22;6146;48.128;11.476;2022-12-31T01:51:21;13.70;99.90
12166;DHT22;6146;48.128;11.476;2022-12-31T01:53:47;13.80;99.90
12166;DHT22;6146;48.128;11.476;2022-12-31T01:56:15;13.80;99.90
12166;DHT22;6146;48.128;11.476;2022-12-31T01:58:45;13.80;99.90
12166;DHT22;6146;48.128;11.476;2022-12-31T02:01:18;13.90;99.90
12166;DHT22;6146;48.128;11.476;2022-12-31T02:03:46;13.90;99.90
12166;DHT22;6146;48.128;11.476;2022-12-31T02:06:23;13.90;99.90
12166;DHT22;6146;48.128;11.476;2022-12-31T02:08:49;13.80;99.90
12166;DHT22;6146;48.128;11.476;2022-12-31T02:11:28;14.00;99.90
12166;DHT22;6146;48.128;11.476;2022-12-31T02:13:57;13.90;99.90
12166;DHT22;6146;48.128;11.476;2022-12-31T02:16:47;13.80;99.90
12166;DHT22;6146;48.128;11.476;2022-12-31T02:25:17;13.70;99.90
12166;DHT22;6146;48.128;11.476;2022-12-31T02:30:23;13.60;99.90
12166;DHT22;6146;48.128;11.476;2022-12-31T02:33:18;13.70;99.90
12166;DHT22;6146;48.128;11.476;2022-12-31T02:35:56;13.70;99.90
12166;DHT22;6146;48.128;11.476;2022-12-31T02:38:29;13.70;99.90
12166;DHT22;6146;48.128;11.476;2022-12-31T02:40:56;13.80;99.90
12166;DHT22;6146;48.128;11.476;2022-12-31T02:43:23;13.80;99.90
12166;DHT22;6146;48.128;11.476;2022-12-31T02:46:24;13.80;99.90
12166;DHT22;6146;48.128;11.476;2022-12-31T02:51:41;14.20;99.90
12166;DHT22;6146;48.128;11.476;2022-12-31T02:54:10;13.90;99.90
12166;DHT22;6146;48.128;11.476;2022-12-31T02:59:32;14.00;99.90
12166;DHT22;6146;48.128;11.476;2022-12-31T03:02:21;14.00;99.90
12166;DHT22;6146;48.128;11.476;2022-12-31T03:04:55;14.00;99.90
12166;DHT22;6146;48.128;11.476;2022-12-31T03:07:27;14.00;99.90
12166;DHT22;6146;48.128;11.476;2022-12-31T03:09:54;14.00;99.90
12166;DHT22;6146;48.128;11.476;2022-12-31T03:12:22;14.10;99.90
12166;DHT22;6146;48.128;11.476;2022-12-31T03:15:09;14.10;99.90
12166;DHT22;6146;48.128;11.476;2022-12-31T03:18:24;14.10;99.90
12166;DHT22;6146;48.128;11.476;2022-12-31T03:20:45;14.20;99.90
12166;DHT22;6146;48.128;11.476;2022-12-31T03:23:34;14.30;99.90
12166;DHT22;6146;48.128;11.476;2022-12-31T03:26:01;14.40;99.90
12166;DHT22;6146;48.128;11.476;2022-12-31T03:28:29;14.30;99.90
12166;DHT22;6146;48.128;11.476;2022-12-31T03:30:57;14.40;99.90
12166;DHT22;6146;48.128;11.476;2022-12-31T03:33:23;14.50;99.90
12166;DHT22;6146;48.128;11.476;2022-12-31T03:35:50;14.60;99.90
12166;DHT22;6146;48.128;11.476;2022-12-31T03:38:17;14.50;99.90
12166;DHT22;6146;48.128;11.476;2022-12-31T03:40:46;14.60;99.90
12166;DHT22;6146;48.128;11.476;2022-12-31T03:43:12;14.60;99.90
12166;DHT22;6146;48.128;11.476;2022-12-31T03:45:38;14.60;99.90
12166;DHT22;6146;48.128;11.476;2022-12-31T03:48:05;14.70;99.90
12166;DHT22;6146;48.128;11.476;2022-12-31T03:50:31;14.60;99.90
12166;DHT22;6146;48.128;11.476;2022-12-31T03:52:57;14.50;99.90
12166;DHT22;6146;48.128;11.476;2022-12-31T03:55:23;14.60;99.90
12166;DHT22;6146;48.128;11.476;2022-12-31T03:57:49;14.40;99.90
12166;DHT22;6146;48.128;11.476;2022-12-31T04:00:17;14.50;99.90
12166;DHT22;6146;48.128;11.476;2022-12-31T04:02:44;14.70;99.90
12166;DHT22;6146;48.128;11.476;2022-12-31T04:05:10;14.50;99.90
12166;DHT22;6146;48.128;11.476;2022-12-31T04:07:36;15.50;99.90
12166;DHT22;6146;48.128;11.476;2022-12-31T04:10:07;14.60;99.90
12166;DHT22;6146;48.128;11.476;2022-12-31T04:12:32;14.30;99.90
12166;DHT22;6146;48.128;11.476;2022-12-31T04:14:58;15.10;99.90
12166;DHT22;6146;48.128;11.476;2022-12-31T04:17:24;14.70;99.90
12166;DHT22;6146;48.128;11.476;2022-12-31T04:19:50;14.90;99.90
12166;DHT22;6146;48.128;11.476;2022-12-31T04:22:15;15.50;99.90
12166;DHT22;6146;48.128;11.476;2022-12-31T04:24:41;14.70;99.90
12166;DHT22;6146;48.128;11.476;2022-12-31T04:27:08;14.80;99.90
12166;DHT22;6146;48.128;11.476;2022-12-31T04:29:34;14.90;99.90
12166;DHT22;6146;48.128;11.476;2022-12-31T04:32:00;15.80;99.90
12166;DHT22;6146;48.128;11.476;2022-12-31T04:34:26;14.90;99.90
12166;DHT22;6146;48.128;11.476;2022-12-31T04:36:51;15.20;99.90
12166;DHT22;6146;48.128;11.476;2022-12-31T04:39:17;15.20;99.90
12166;DHT22;6146;48.128;11.476;2022-12-31T04:41:43;14.90;99.90
12166;DHT22;6146;48.128;11.476;2022-12-31T04:44:08;14.80;99.90
12166;DHT22;6146;48.128;11.476;2022-12-31T04:46:34;14.90;99.90
12166;DHT22;6146;48.128;11.476;2022-12-31T04:49:00;16.20;99.90
12166;DHT22;6146;48.128;11.476;2022-12-31T04:51:27;14.90;99.90
12166;DHT22;6146;48.128;11.476;2022-12-31T04:53:53;14.90;99.90
12166;DHT22;6146;48.128;11.476;2022-12-31T04:56:19;15.30;99.90
12166;DHT22;6146;48.128;11.476;2022-12-31T04:58:45;14.90;99.90
12166;DHT22;6146;48.128;11.476;2022-12-31T05:01:11;15.60;99.90
12166;DHT22;6146;48.128;11.476;2022-12-31T05:03:37;15.00;99.90
12166;DHT22;6146;48.128;11.476;2022-12-31T05:06:05;16.00;99.90
12166;DHT22;6146;48.128;11.476;2022-12-31T05:08:31;15.00;99.90
12166;DHT22;6146;48.128;11.476;2022-12-31T05:10:57;15.00;99.90
12166;DHT22;6146;48.128;11.476;2022-12-31T05:13:24;15.90;99.90
12166;DHT22;6146;48.128;11.476;2022-12-31T05:15:50;15.10;99.90
12166;DHT22;6146;48.128;11.476;2022-12-31T05:18:16;15.60;99.90
12166;DHT22;6146;48.128;11.476;2022-12-31T05:20:42;15.00;99.90
12166;DHT22;6146;48.128;11.476;2022-12-31T05:23:08;15.00;99.90
12166;DHT22;6146;48.128;11.476;2022-12-31T05:25:34;15.00;99.90
12166;DHT22;6146;48.128;11.476;2022-12-31T05:28:00;14.90;99.90
12166;DHT22;6146;48.128;11.476;2022-12-31T05:30:25;14.90;99.90
12166;DHT22;6146;48.128;11.476;2022-12-31T05:32:51;14.90;99.90
12166;DHT22;6146;48.128;11.476;2022-12-31T05:35:16;14.90;99.90
12166;DHT22;6146;48.128;11.476;2022-12-31T05:37:43;14.90;99.90
12166;DHT22;6146;48.128;11.476;2022-12-31T05:40:09;14.90;99.90
12166;DHT22;6146;48.128;11.476;2022-12-31T05:42:35;14.90;99.90
12166;DHT22;6146;48.128;11.476;2022-12-31T05:45:01;14.90;99.90
12166;DHT22;6146;48.128;11.476;2022-12-31T05:47:27;16.30;99.90
12166;DHT22;6146;48.128;11.476;2022-12-31T05:49:52;15.40;99.90
12166;DHT22;6146;48.128;11.476;2022-12-31T05:52:19;14.90;99.90
12166;DHT22;6146;48.128;11.476;2022-12-31T05:54:44;15.30;99.90
12166;DHT22;6146;48.128;11.476;2022-12-31T05:57:11;14.70;99.90
12166;DHT22;6146;48.128;11.476;2022-12-31T05:59:36;16.90;99.90
12166;DHT22;6146;48.128;11.476;2022-12-31T06:02:02;14.60;99.90
12166;DHT22;6146;48.128;11.476;2022-12-31T06:04:28;15.60;99.90
12166;DHT22;6146;48.128;11.476;2022-12-31T06:06:54;15.30;99.90
12166;DHT22;6146;48.128;11.476;2022-12-31T06:09:20;14.90;99.90
12166;DHT22;6146;48.128;11.476;2022-12-31T06:11:46;15.10;99.90
12166;DHT22;6146;48.128;11.476;2022-12-31T06:14:12;14.70;99.90
12166;DHT22;6146;48.128;11.476;2022-12-31T06:19:06;14.30;99.90
12166;DHT22;6146;48.128;11.476;2022-12-31T06:21:32;14.20;99.90
12166;DHT22;6146;48.128;11.476;2022-12-31T06:23:57;14.20;99.90
12166;DHT22;6146;48.128;11.476;2022-12-31T06:26:23;14.20;99.90
12166;DHT22;6146;48.128;11.476;2022-12-31T06:28:49;14.10;99.90
12166;DHT22;6146;48.128;11.476;2022-12-31T06:31:14;14.10;99.90
12166;DHT22;6146;48.128;11.476;2022-12-31T06:33:40;14.10;99.90
12166;DHT22;6146;48.128;11.476;2022-12-31T06:36:10;14.20;99.90
12166;DHT22;6146;48.128;11.476;2022-12-31T06:38:38;14.20;99.90
12166;DHT22;6146;48.128;11.476;2022-12-31T06:41:06;14.20;99.90
12166;DHT22;6146;48.128;11.476;2022-12-31T06:43:33;14.20;99.90
12166;DHT22;6146;48.128;11.476;2022-12-31T06:46:04;14.20;99.90
12166;DHT22;6146;48.128;11.476;2022-12-31T06:48:30;14.30;99.90
12166;DHT22;6146;48.128;11.476;2022-12-31T06:50:55;14.30;99.90
12166;DHT22;6146;48.128;11.476;2022-12-31T06:53:21;14.30;99.90
12166;DHT22;6146;48.128;11.476;2022-12-31T06:55:47;14.30;99.90
12166;DHT22;6146;48.128;11.476;2022-12-31T06:58:14;14.30;99.90
12166;DHT22;6146;48.128;11.476;2022-12-31T07:01:42;14.30;99.90
12166;DHT22;6146;48.128;11.476;2022-12-31T07:11:31;14.30;99.90
12166;DHT22;6146;48.128;11.476;2022-12-31T07:16:39;14.30;99.90
12166;DHT22;6146;48.128;11.476;2022-12-31T07:21:38;14.30;99.90
12166;DHT22;6146;48.128;11.476;2022-12-31T07:24:08;14.40;99.90
12166;DHT22;6146;48.128;11.476;2022-12-31T07:27:00;14.40;99.90
12166;DHT22;6146;48.128;11.476;2022-12-31T07:29:31;14.40;99.90
12166;DHT22;6146;48.128;11.476;2022-12-31T07:35:01;14.40;99.90
12166;DHT22;6146;48.128;11.476;2022-12-31T07:45:47;14.50;99.90
12166;DHT22;6146;48.128;11.476;2022-12-31T07:48:26;14.50;99.90
12166;DHT22;6146;48.128;11.476;2022-12-31T07:50:53;14.50;99.90
12166;DHT22;6146;48.128;11.476;2022-12-31T07:53:20;14.50;99.90
12166;DHT22;6146;48.128;11.476;2022-12-31T07:55:46;14.60;99.90
12166;DHT22;6146;48.128;11.476;2022-12-31T08:01:10;14.70;99.90
12166;DHT22;6146;48.128;11.476;2022-12-31T08:04:06;14.80;99.90
12166;DHT22;6146;48.128;11.476;2022-12-31T08:11:57;14.90;99.90
12166;DHT22;6146;48.128;11.476;2022-12-31T08:14:24;15.30;99.90
12166;DHT22;6146;48.128;11.476;2022-12-31T08:16:50;15.90;99.90
12166;DHT22;6146;48.128;11.476;2022-12-31T08:19:25;16.00;99.90
12166;DHT22;6146;48.128;11.476;2022-12-31T08:35:26;15.90;99.90
12166;DHT22;6146;48.128;11.476;2022-12-31T08:45:55;15.80;99.90
12166;DHT22;6146;48.128;11.476;2022-12-31T08:48:43;16.20;99.90
12166;DHT22;6146;48.128;11.476;2022-12-31T08:51:18;17.40;99.90
12166;DHT22;6146;48.128;11.476;2022-12-31T08:53:44;19.20;99.90
12166;DHT22;6146;48.128;11.476;2022-12-31T08:56:29;20.50;98.80
12166;DHT22;6146;48.128;11.476;2022-12-31T09:07:07;22.20;90.00
12166;DHT22;6146;48.128;11.476;2022-12-31T09:12:46;22.90;83.50
12166;DHT22;6146;48.128;11.476;2022-12-31T09:18:08;20.80;89.40
12166;DHT22;6146;48.128;11.476;2022-12-31T09:20:36;20.10;90.80
12166;DHT22;6146;48.128;11.476;2022-12-31T09:23:02;19.60;91.80
12166;DHT22;6146;48.128;11.476;2022-12-31T09:25:28;19.40;92.80
12166;DHT22;6146;48.128;11.476;2022-12-31T09:30:36;20.00;91.70
12166;DHT22;6146;48.128;11.476;2022-12-31T09:33:12;20.90;91.30
12166;DHT22;6146;48.128;11.476;2022-12-31T09:35:57;20.90;90.30
12166;DHT22;6146;48.128;11.476;2022-12-31T09:38:36;20.40;90.80
12166;DHT22;6146;48.128;11.476;2022-12-31T09:50:19;20.60;91.40
12166;DHT22;6146;48.128;11.476;2022-12-31T09:58:56;25.30;73.70
12166;DHT22;6146;48.128;11.476;2022-12-31T10:04:24;26.20;69.00
12166;DHT22;6146;48.128;11.476;2022-12-31T10:07:06;27.20;63.90
12166;DHT22;6146;48.128;11.476;2022-12-31T10:09:53;28.30;59.00
12166;DHT22;6146;48.128;11.476;2022-12-31T10:20:25;29.30;53.20
12166;DHT22;6146;48.128;11.476;2022-12-31T10:23:01;29.20;52.40
12166;DHT22;6146;48.128;11.476;2022-12-31T10:25:49;29.70;50.30
12166;DHT22;6146;48.128;11.476;2022-12-31T10:28:36;29.20;50.20
12166;DHT22;6146;48.128;11.476;2022-12-31T10:36:17;25.00;56.20
12166;DHT22;6146;48.128;11.476;2022-12-31T10:42:30;23.20;61.20
12166;DHT22;6146;48.128;11.476;2022-12-31T11:04:01;20.40;71.90
12166;DHT22;6146;48.128;11.476;2022-12-31T11:20:37;19.80;74.20
12166;DHT22;6146;48.128;11.476;2022-12-31T11:25:42;19.80;75.20
12166;DHT22;6146;48.128;11.476;2022-12-31T11:29:20;19.90;74.90
12166;DHT22;6146;48.128;11.476;2022-12-31T11:41:51;21.10;72.10
12166;DHT22;6146;48.128;11.476;2022-12-31T11:44:45;21.30;72.20
12166;DHT22;6146;48.128;11.476;2022-12-31T11:47:42;21.80;70.10
12166;DHT22;6146;48.128;11.476;2022-12-31T11:53:00;23.60;68.40
12166;DHT22;6146;48.128;11.476;2022-12-31T11:55:55;24.70;64.10
12166;DHT22;6146;48.128;11.476;2022-12-31T11:58:23;26.50;59.10
12166;DHT22;6146;48.128;11.476;2022-12-31T12:01:13;27.80;55.80
12166;DHT22;6146;48.128;11.476;2022-12-31T12:03:42;27.90;55.70
12166;DHT22;6146;48.128;11.476;2022-12-31T12:06:14;27.90;52.90
12166;DHT22;6146;48.128;11.476;2022-12-31T12:08:42;28.80;52.90
12166;DHT22;6146;48.128;11.476;2022-12-31T12:11:22;29.90;49.80
12166;DHT22;6146;48.128;11.476;2022-12-31T12:13:48;30.50;48.00
12166;DHT22;6146;48.128;11.476;2022-12-31T12:16:14;30.80;47.60
12166;DHT22;6146;48.128;11.476;2022-12-31T12:18:49;31.30;44.80
12166;DHT22;6146;48.128;11.476;2022-12-31T12:21:23;31.80;43.00
12166;DHT22;6146;48.128;11.476;2022-12-31T12:24:16;32.10;43.80
12166;DHT22;6146;48.128;11.476;2022-12-31T12:26:43;31.40;43.80
12166;DHT22;6146;48.128;11.476;2022-12-31T12:29:26;31.70;42.40
12166;DHT22;6146;48.128;11.476;2022-12-31T12:32:02;31.50;42.20
12166;DHT22;6146;48.128;11.476;2022-12-31T12:34:30;31.20;42.60
12166;DHT22;6146;48.128;11.476;2022-12-31T12:36:56;31.10;42.90
12166;DHT22;6146;48.128;11.476;2022-12-31T12:39:27;30.60;43.80
12166;DHT22;6146;48.128;11.476;2022-12-31T12:42:05;31.00;43.50
12166;DHT22;6146;48.128;11.476;2022-12-31T12:44:31;31.40;42.40
12166;DHT22;6146;48.128;11.476;2022-12-31T12:46:57;31.90;41.50
12166;DHT22;6146;48.128;11.476;2022-12-31T12:49:56;31.50;40.90
12166;DHT22;6146;48.128;11.476;2022-12-31T12:55:19;32.00;41.90
12166;DHT22;6146;48.128;11.476;2022-12-31T13:00:23;31.90;42.30
12166;DHT22;6146;48.128;11.476;2022-12-31T13:11:32;29.70;46.90
12166;DHT22;6146;48.128;11.476;2022-12-31T13:19:36;29.00;49.20
12166;DHT22;6146;48.128;11.476;2022-12-31T13:24:59;28.60;50.10
12166;DHT22;6146;48.128;11.476;2022-12-31T13:27:39;28.30;51.40
12166;DHT22;6146;48.128;11.476;2022-12-31T13:30:14;27.80;52.00
12166;DHT22;6146;48.128;11.476;2022-12-31T13:32:44;27.30;52.60
12166;DHT22;6146;48.128;11.476;2022-12-31T13:35:53;26.60;54.00
12166;DHT22;6146;48.128;11.476;2022-12-31T13:41:30;26.00;55.60
12166;DHT22;6146;48.128;11.476;2022-12-31T13:46:50;25.00;57.70
12166;DHT22;6146;48.128;11.476;2022-12-31T13:49:24;24.60;59.10
12166;DHT22;6146;48.128;11.476;2022-12-31T14:00:04;23.20;63.10
12166;DHT22;6146;48.128;11.476;2022-12-31T14:02:55;22.80;65.10
12166;DHT22;6146;48.128;11.476;2022-12-31T14:05:34;22.40;65.10
12166;DHT22;6146;48.128;11.476;2022-12-31T14:08:01;22.10;67.00
12166;DHT22;6146;48.128;11.476;2022-12-31T14:16:25;21.10;70.10
12166;DHT22;6146;48.128;11.476;2022-12-31T14:21:31;20.50;73.10
12166;DHT22;6146;48.128;11.476;2022-12-31T14:26:36;19.90;76.80
12166;DHT22;6146;48.128;11.476;2022-12-31T14:34:20;19.10;79.70
12166;DHT22;6146;48.128;11.476;2022-12-31T14:37:09;18.80;81.70
12166;DHT22;6146;48.128;11.476;2022-12-31T14:42:39;18.30;85.70
12166;DHT22;6146;48.128;11.476;2022-12-31T14:45:21;18.00;87.20
12166;DHT22;6146;48.128;11.476;2022-12-31T14:48:09;17.90;89.00
12166;DHT22;6146;48.128;11.476;2022-12-31T14:50:38;17.60;90.20
12166;DHT22;6146;48.128;11.476;2022-12-31T14:57:57;17.00;92.50
12166;DHT22;6146;48.128;11.476;2022-12-31T15:00:35;16.90;93.40
12166;DHT22;6146;48.128;11.476;2022-12-31T15:03:21;16.70;94.50
12166;DHT22;6146;48.128;11.476;2022-12-31T15:09:09;16.30;95.70
12166;DHT22;6146;48.128;11.476;2022-12-31T15:14:57;15.80;98.50
12166;DHT22;6146;48.128;11.476;2022-12-31T15:22:52;15.30;99.90
12166;DHT22;6146;48.128;11.476;2022-12-31T15:25:21;15.10;99.90
12166;DHT22;6146;48.128;11.476;2022-12-31T15:27:48;15.00;99.90
12166;DHT22;6146;48.128;11.476;2022-12-31T15:33:26;14.70;99.90
12166;DHT22;6146;48.128;11.476;2022-12-31T15:35:55;14.60;99.90
12166;DHT22;6146;48.128;11.476;2022-12-31T15:38:37;14.40;99.90
12166;DHT22;6146;48.128;11.476;2022-12-31T15:46:36;14.10;99.90
12166;DHT22;6146;48.128;11.476;2022-12-31T15:51:42;13.80;99.90
12166;DHT22;6146;48.128;11.476;2022-12-31T15:54:38;13.80;99.90
12166;DHT22;6146;48.128;11.476;2022-12-31T15:57:05;13.70;99.90
12166;DHT22;6146;48.128;11.476;2022-12-31T15:59:35;13.60;99.90
12166;DHT22;6146;48.128;11.476;2022-12-31T16:02:02;13.50;99.90
12166;DHT22;6146;48.128;11.476;2022-12-31T16:04:29;13.60;99.90
12166;DHT22;6146;48.128;11.476;2022-12-31T16:07:01;13.60;99.90
12166;DHT22;6146;48.128;11.476;2022-12-31T16:09:30;13.60;99.90
12166;DHT22;6146;48.128;11.476;2022-12-31T16:11:58;13.50;99.90
12166;DHT22;6146;48.128;11.476;2022-12-31T16:14:34;13.50;99.90
12166;DHT22;6146;48.128;11.476;2022-12-31T16:17:01;13.50;99.90
12166;DHT22;6146;48.128;11.476;2022-12-31T16:19:41;13.50;99.90
12166;DHT22;6146;48.128;11.476;2022-12-31T16:22:13;13.50;99.90
12166;DHT22;6146;48.128;11.476;2022-12-31T16:24:39;13.50;99.90
12166;DHT22;6146;48.128;11.476;2022-12-31T16:27:08;13.40;99.90
12166;DHT22;6146;48.128;11.476;2022-12-31T16:29:41;13.40;99.90
12166;DHT22;6146;48.128;11.476;2022-12-31T16:32:13;13.30;99.90
12166;DHT22;6146;48.128;11.476;2022-12-31T16:34:38;13.30;99.90
12166;DHT22;6146;48.128;11.476;2022-12-31T16:37:12;13.30;99.90
12166;DHT22;6146;48.128;11.476;2022-12-31T16:42:26;13.20;99.90
12166;DHT22;6146;48.128;11.476;2022-12-31T16:44:53;13.20;99.90
12166;DHT22;6146;48.128;11.476;2022-12-31T16:47:34;13.20;99.90
12166;DHT22;6146;48.128;11.476;2022-12-31T16:50:09;13.30;99.90
12166;DHT22;6146;48.128;11.476;2022-12-31T16:52:38;13.30;99.90
12166;DHT22;6146;48.128;11.476;2022-12-31T16:55:16;13.30;99.90
12166;DHT22;6146;48.128;11.476;2022-12-31T16:57:45;13.40;99.90
12166;DHT22;6146;48.128;11.476;2022-12-31T17:00:16;13.30;99.90
12166;DHT22;6146;48.128;11.476;2022-12-31T17:02:53;13.30;99.90
12166;DHT22;6146;48.128;11.476;2022-12-31T17:05:25;13.30;99.90
12166;DHT22;6146;48.128;11.476;2022-12-31T17:07:51;13.20;99.90
12166;DHT22;6146;48.128;11.476;2022-12-31T17:10:26;13.20;99.90
12166;DHT22;6146;48.128;11.476;2022-12-31T17:12:59;13.20;99.90
12166;DHT22;6146;48.128;11.476;2022-12-31T17:15:27;13.20;99.90
12166;DHT22;6146;48.128;11.476;2022-12-31T17:18:00;13.20;99.90
12166;DHT22;6146;48.128;11.476;2022-12-31T17:20:28;13.20;99.90
12166;DHT22;6146;48.128;11.476;2022-12-31T17:23:06;13.20;99.90
12166;DHT22;6146;48.128;11.476;2022-12-31T17:25:34;13.20;99.90
12166;DHT22;6146;48.128;11.476;2022-12-31T17:28:16;13.10;99.90
12166;DHT22;6146;48.128;11.476;2022-12-31T17:30:44;13.10;99.90
12166;DHT22;6146;48.128;11.476;2022-12-31T17:35:45;13.00;99.90
12166;DHT22;6146;48.128;11.476;2022-12-31T17:40:43;13.00;99.90
12166;DHT22;6146;48.128;11.476;2022-12-31T17:43:12;13.00;99.90
12166;DHT22;6146;48.128;11.476;2022-12-31T17:45:38;13.00;99.90
12166;DHT22;6146;48.128;11.476;2022-12-31T17:48:06;13.00;99.90
12166;DHT22;6146;48.128;11.476;2022-12-31T17:50:34;13.90;99.90
12166;DHT22;6146;48.128;11.476;2022-12-31T17:53:08;12.90;99.90
12166;DHT22;6146;48.128;11.476;2022-12-31T17:55:35;12.80;99.90
12166;DHT22;6146;48.128;11.476;2022-12-31T17:58:03;12.90;99.90
12166;DHT22;6146;48.128;11.476;2022-12-31T18:00:29;12.90;99.90
12166;DHT22;6146;48.128;11.476;2022-12-31T18:02:57;12.90;99.90
12166;DHT22;6146;48.128;11.476;2022-12-31T18:05:24;12.80;99.90
12166;DHT22;6146;48.128;11.476;2022-12-31T18:07:50;12.80;99.90
12166;DHT22;6146;48.128;11.476;2022-12-31T18:10:17;12.70;99.90
12166;DHT22;6146;48.128;11.476;2022-12-31T18:12:44;12.70;99.90
12166;DHT22;6146;48.128;11.476;2022-12-31T18:15:18;12.70;99.90
12166;DHT22;6146;48.128;11.476;2022-12-31T18:17:44;12.70;99.90
12166;DHT22;6146;48.128;11.476;2022-12-31T18:20:10;12.70;99.90
12166;DHT22;6146;48.128;11.476;2022-12-31T18:22:37;12.80;99.90
12166;DHT22;6146;48.128;11.476;2022-12-31T18:25:04;12.80;99.90
12166;DHT22;6146;48.128;11.476;2022-12-31T18:27:31;12.80;99.90
12166;DHT22;6146;48.128;11.476;2022-12-31T18:29:58;12.80;99.90
12166;DHT22;6146;48.128;11.476;2022-12-31T18:32:26;12.80;99.90
12166;DHT22;6146;48.128;11.476;2022-12-31T18:34:51;12.70;99.90
12166;DHT22;6146;48.128;11.476;2022-12-31T18:37:17;12.80;99.90
12166;DHT22;6146;48.128;11.476;2022-12-31T18:39:43;12.80;99.90
12166;DHT22;6146;48.128;11.476;2022-12-31T18:42:14;12.80;99.90
12166;DHT22;6146;48.128;11.476;2022-12-31T18:44:41;12.80;99.90
12166;DHT22;6146;48.128;11.476;2022-12-31T18:47:15;12.80;99.90
12166;DHT22;6146;48.128;11.476;2022-12-31T18:49:41;12.80;99.90
12166;DHT22;6146;48.128;11.476;2022-12-31T18:52:17;12.00;99.90
12166;DHT22;6146;48.128;11.476;2022-12-31T18:54:43;12.90;99.90
12166;DHT22;6146;48.128;11.476;2022-12-31T18:57:13;12.80;99.90
12166;DHT22;6146;48.128;11.476;2022-12-31T18:59:38;12.80;99.90
12166;DHT22;6146;48.128;11.476;2022-12-31T19:02:10;12.80;99.90
12166;DHT22;6146;48.128;11.476;2022-12-31T19:04:36;12.70;99.90
12166;DHT22;6146;48.128;11.476;2022-12-31T19:07:01;12.60;99.90
12166;DHT22;6146;48.128;11.476;2022-12-31T19:09:27;12.60;99.90
12166;DHT22;6146;48.128;11.476;2022-12-31T19:11:52;12.50;99.90
12166;DHT22;6146;48.128;11.476;2022-12-31T19:14:20;12.40;99.90
12166;DHT22;6146;48.128;11.476;2022-12-31T19:16:48;12.10;99.90
12166;DHT22;6146;48.128;11.476;2022-12-31T19:19:15;11.90;99.90
12166;DHT22;6146;48.128;11.476;2022-12-31T19:21:42;11.80;99.90
12166;DHT22;6146;48.128;11.476;2022-12-31T19:24:26;11.70;99.90
12166;DHT22;6146;48.128;11.476;2022-12-31T19:26:52;11.60;99.90
12166;DHT22;6146;48.128;11.476;2022-12-31T19:29:23;11.50;99.90
12166;DHT22;6146;48.128;11.476;2022-12-31T19:31:49;11.50;99.90
12166;DHT22;6146;48.128;11.476;2022-12-31T19:34:15;11.40;99.90
12166;DHT22;6146;48.128;11.476;2022-12-31T19:36:41;11.40;99.90
12166;DHT22;6146;48.128;11.476;2022-12-31T19:39:12;11.40;99.90
12166;DHT22;6146;48.128;11.476;2022-12-31T19:41:41;11.30;99.90
12166;DHT22;6146;48.128;11.476;2022-12-31T19:44:16;11.30;99.90
12166;DHT22;6146;48.128;11.476;2022-12-31T19:46:43;11.20;99.90
12166;DHT22;6146;48.128;11.476;2022-12-31T19:49:10;11.20;99.90
12166;DHT22;6146;48.128;11.476;2022-12-31T19:51:35;11.20;99.90
12166;DHT22;6146;48.128;11.476;2022-12-31T19:54:01;11.10;99.90
12166;DHT22;6146;48.128;11.476;2022-12-31T19:56:26;11.10;99.90
12166;DHT22;6146;48.128;11.476;2022-12-31T19:58:52;11.10;99.90
12166;DHT22;6146;48.128;11.476;2022-12-31T20:01:20;11.10;99.90
12166;DHT22;6146;48.128;11.476;2022-12-31T20:03:46;11.10;99.90
12166;DHT22;6146;48.128;11.476;2022-12-31T20:06:12;11.00;99.90
12166;DHT22;6146;48.128;11.476;2022-12-31T20:08:38;11.00;99.90
12166;DHT22;6146;48.128;11.476;2022-12-31T20:11:18;11.00;99.90
12166;DHT22;6146;48.128;11.476;2022-12-31T20:13:46;11.00;99.90